Time;durP1;ratioP1;P1;durP2;ratioP2;P2;SDS_P1;SDS_P2;PMS_P1;PMS_P2;Temp;Humidity;BMP_temperature;BMP_pressure;BME280_temperature;BME280_humidity;BME280_pressure;Samples;Min_cycle;Max_cycle;Signal;HPM_P1;HPM_P2
2022/03/14 00:01:15;;;;;;;1.38;1.08;;;7.40;99.90;;;;;;4965712;28;20023;-79
2022/03/14 00:03:50;;;;;;;0.77;0.77;;;7.40;99.90;;;;;;4951206;28;20031;-78
2022/03/14 00:06:16;;;;;;;1.27;0.93;;;7.40;99.90;;;;;;4951642;28;20492;-79
2022/03/14 00:08:42;;;;;;;0.75;0.60;;;7.40;99.90;;;;;;4950917;28;20102;-79
2022/03/14 00:11:08;;;;;;;0.60;0.60;;;7.30;99.90;;;;;;4951181;28;20027;-78
2022/03/14 00:13:34;;;;;;;1.05;0.80;;;7.40;99.90;;;;;;4950862;28;20562;-79
2022/03/14 00:16:00;;;;;;;1.02;0.60;;;7.40;99.90;;;;;;4951044;28;20206;-79
2022/03/14 00:18:27;;;;;;;0.60;0.60;;;7.30;99.90;;;;;;4949501;28;20042;-79
2022/03/14 00:20:53;;;;;;;1.50;0.70;;;7.30;99.90;;;;;;4965294;28;20518;-79
2022/03/14 00:23:19;;;;;;;1.48;0.50;;;7.30;99.90;;;;;;4950914;28;20110;-79
2022/03/14 00:25:44;;;;;;;0.40;0.40;;;7.30;99.90;;;;;;4951164;28;20078;-78
2022/03/14 00:28:12;;;;;;;0.63;0.63;;;7.30;99.90;;;;;;4950407;28;20353;-78
2022/03/14 00:30:37;;;;;;;0.50;0.50;;;7.30;99.90;;;;;;4950905;28;20051;-79
2022/03/14 00:33:03;;;;;;;0.57;0.40;;;7.30;99.90;;;;;;4949444;28;20470;-79
2022/03/14 00:35:29;;;;;;;1.15;0.40;;;7.30;99.90;;;;;;4950430;28;20047;-78
2022/03/14 00:37:54;;;;;;;0.50;0.40;;;7.30;99.90;;;;;;4950537;28;20035;-79
2022/03/14 00:40:20;;;;;;;0.55;0.40;;;7.30;99.90;;;;;;4966009;28;20094;-78
2022/03/14 00:42:48;;;;;;;0.35;0.35;;;7.30;99.90;;;;;;4965083;28;20118;-78
2022/03/14 00:45:14;;;;;;;0.88;0.40;;;7.30;99.90;;;;;;4964591;28;20035;-79
2022/03/14 00:47:40;;;;;;;0.63;0.40;;;7.30;99.90;;;;;;4950085;28;20027;-78
2022/03/14 00:50:06;;;;;;;0.22;0.22;;;7.30;99.90;;;;;;4948246;28;20431;-78
2022/03/14 00:52:32;;;;;;;0.55;0.40;;;7.30;99.90;;;;;;4965252;28;20366;-78
2022/03/14 00:54:57;;;;;;;0.20;0.20;;;7.30;99.90;;;;;;4968020;28;20027;-78
2022/03/14 00:57:23;;;;;;;0.20;0.20;;;7.30;99.90;;;;;;4969150;28;20031;-78
2022/03/14 00:59:49;;;;;;;2.20;0.22;;;7.40;99.90;;;;;;4984095;28;20138;-78
2022/03/14 01:02:14;;;;;;;0.20;0.20;;;7.40;99.90;;;;;;4969202;28;20049;-78
2022/03/14 01:04:40;;;;;;;0.25;0.20;;;7.40;99.90;;;;;;4969314;28;20045;-78
2022/03/14 01:07:06;;;;;;;0.43;0.10;;;7.40;99.90;;;;;;4969234;28;20491;-77
2022/03/14 01:09:32;;;;;;;0.17;0.17;;;7.40;99.90;;;;;;4984084;28;20031;-78
2022/03/14 01:11:58;;;;;;;0.20;0.20;;;7.40;99.90;;;;;;4969132;28;20047;-78
2022/03/14 01:14:24;;;;;;;1.17;0.20;;;7.40;99.90;;;;;;4968691;28;20591;-78
2022/03/14 01:16:51;;;;;;;1.17;0.15;;;7.40;99.90;;;;;;4969256;28;20037;-79
2022/03/14 01:19:17;;;;;;;0.10;0.10;;;7.30;99.90;;;;;;4967551;28;20038;-77
2022/03/14 01:21:43;;;;;;;2.95;0.35;;;7.30;99.90;;;;;;4983872;28;20039;-78
2022/03/14 01:24:09;;;;;;;0.60;0.20;;;7.30;99.90;;;;;;4968628;28;20084;-79
2022/03/14 01:26:34;;;;;;;0.10;0.10;;;7.30;99.90;;;;;;4967436;28;20029;-77
2022/03/14 01:29:04;;;;;;;0.10;0.10;;;7.20;99.90;;;;;;4968510;28;20022;-78
2022/03/14 01:31:30;;;;;;;0.17;0.17;;;7.10;99.90;;;;;;4968535;28;20054;-78
2022/03/14 01:33:56;;;;;;;0.20;0.20;;;7.10;99.90;;;;;;4968465;28;20480;-78
2022/03/14 01:36:22;;;;;;;0.10;0.10;;;7.10;99.90;;;;;;4983461;28;20031;-78
2022/03/14 01:38:48;;;;;;;0.20;0.17;;;7.10;99.90;;;;;;4968301;28;20031;-78
2022/03/14 01:41:18;;;;;;;0.10;0.10;;;7.10;99.90;;;;;;4968693;28;20476;-78
2022/03/14 01:43:47;;;;;;;0.35;0.32;;;7.00;99.90;;;;;;4969903;28;20031;-78
2022/03/14 01:46:16;;;;;;;0.20;0.20;;;7.00;99.90;;;;;;4968671;28;20030;-78
2022/03/14 01:48:45;;;;;;;0.10;0.10;;;7.00;99.90;;;;;;4983152;28;20519;-78
2022/03/14 01:51:11;;;;;;;0.10;0.10;;;7.00;99.90;;;;;;4968479;28;20050;-78
2022/03/14 01:53:38;;;;;;;0.38;0.20;;;7.00;99.90;;;;;;4968446;28;20039;-79
2022/03/14 01:56:04;;;;;;;0.10;0.10;;;6.90;99.90;;;;;;4954573;28;20023;-78
2022/03/14 01:58:31;;;;;;;0.10;0.10;;;8.10;99.90;;;;;;4948670;28;20067;-77
2022/03/14 02:00:57;;;;;;;0.45;0.17;;;6.90;99.90;;;;;;4948739;28;20402;-77
2022/03/14 02:03:22;;;;;;;0.80;0.32;;;6.90;99.90;;;;;;4948623;28;20468;-78
2022/03/14 02:05:48;;;;;;;0.10;0.10;;;6.90;99.90;;;;;;4949417;28;20480;-78
2022/03/14 02:08:15;;;;;;;0.17;0.17;;;6.80;99.90;;;;;;4964089;28;20131;-78
2022/03/14 02:10:41;;;;;;;0.30;0.30;;;6.80;99.90;;;;;;4963822;28;20110;-78
2022/03/14 02:13:10;;;;;;;0.10;0.10;;;6.70;99.90;;;;;;4963240;28;20146;-78
2022/03/14 02:15:38;;;;;;;0.13;0.13;;;6.70;99.90;;;;;;4949025;28;20027;-79
2022/03/14 02:18:04;;;;;;;0.10;0.10;;;6.70;99.90;;;;;;4963058;28;20067;-79
2022/03/14 02:20:30;;;;;;;0.10;0.10;;;6.70;99.90;;;;;;4949008;28;20031;-78
2022/03/14 02:22:56;;;;;;;0.10;0.10;;;6.60;99.90;;;;;;4948762;28;20313;-78
2022/03/14 02:25:21;;;;;;;0.10;0.10;;;6.50;99.90;;;;;;4948408;28;20023;-78
2022/03/14 02:27:47;;;;;;;0.10;0.10;;;6.50;99.90;;;;;;4948273;28;20031;-79
2022/03/14 02:30:13;;;;;;;0.10;0.10;;;6.50;99.90;;;;;;4963428;28;20031;-78
2022/03/14 02:32:41;;;;;;;0.10;0.10;;;6.40;99.90;;;;;;4947080;28;20023;-78
2022/03/14 02:35:09;;;;;;;0.17;0.13;;;6.30;99.90;;;;;;4962693;28;20063;-78
2022/03/14 02:37:36;;;;;;;0.10;0.10;;;6.30;99.90;;;;;;4948098;28;20123;-78
2022/03/14 02:40:03;;;;;;;0.10;0.10;;;6.30;99.90;;;;;;4949186;28;20054;-78
2022/03/14 02:42:28;;;;;;;0.20;0.13;;;6.30;99.90;;;;;;4948290;28;20106;-78
2022/03/14 02:44:54;;;;;;;0.10;0.10;;;6.20;99.90;;;;;;4948594;28;20114;-77
2022/03/14 02:47:20;;;;;;;0.10;0.10;;;6.20;99.90;;;;;;4948146;28;20035;-77
2022/03/14 02:49:45;;;;;;;0.10;0.10;;;6.10;99.90;;;;;;4947954;28;20031;-77
2022/03/14 02:52:11;;;;;;;0.10;0.10;;;6.10;99.90;;;;;;4948560;28;20035;-78
2022/03/14 02:54:37;;;;;;;0.00;0.00;;;6.00;99.90;;;;;;4948569;28;20019;-78
2022/03/14 02:57:05;;;;;;;0.50;0.28;;;6.00;99.90;;;;;;4965949;28;20031;-79
2022/03/14 02:59:32;;;;;;;0.20;0.20;;;6.00;99.90;;;;;;4967083;28;20178;-78
2022/03/14 03:01:58;;;;;;;0.32;0.10;;;7.30;99.90;;;;;;4966721;28;20527;-77
2022/03/14 03:04:23;;;;;;;0.10;0.10;;;6.00;99.90;;;;;;4982133;28;20491;-77
2022/03/14 03:06:49;;;;;;;2.80;0.38;;;6.00;99.90;;;;;;4967377;28;20114;-78
2022/03/14 03:09:15;;;;;;;0.20;0.20;;;6.00;99.90;;;;;;4967101;28;20274;-77
2022/03/14 03:11:41;;;;;;;0.10;0.10;;;5.90;99.90;;;;;;4967366;28;20435;-78
2022/03/14 03:14:06;;;;;;;0.10;0.10;;;5.90;99.90;;;;;;4984126;28;20122;-77
2022/03/14 03:16:34;;;;;;;0.10;0.10;;;5.90;99.90;;;;;;4971950;28;20090;-78
2022/03/14 03:19:00;;;;;;;0.10;0.10;;;5.90;99.90;;;;;;4985477;28;20116;-78
2022/03/14 03:21:27;;;;;;;0.15;0.15;;;7.50;99.90;;;;;;4971051;28;20086;-78
2022/03/14 03:23:53;;;;;;;0.10;0.10;;;5.80;99.90;;;;;;4971073;28;20357;-78
2022/03/14 03:26:19;;;;;;;0.32;0.10;;;5.80;99.90;;;;;;4970888;28;20030;-78
2022/03/14 03:28:45;;;;;;;0.10;0.10;;;5.70;99.90;;;;;;4970625;28;20428;-78
2022/03/14 03:31:16;;;;;;;0.10;0.10;;;5.70;99.90;;;;;;4971155;28;20023;-78
2022/03/14 03:33:42;;;;;;;0.15;0.10;;;5.60;99.90;;;;;;4970974;28;20027;-77
2022/03/14 03:36:08;;;;;;;0.10;0.10;;;5.60;99.90;;;;;;4970968;28;20546;-78
2022/03/14 03:38:35;;;;;;;0.90;0.30;;;5.50;99.90;;;;;;4985392;28;20077;-78
2022/03/14 03:41:01;;;;;;;2.08;0.20;;;5.50;99.90;;;;;;4969749;28;20177;-78
2022/03/14 03:43:27;;;;;;;0.10;0.10;;;5.60;99.90;;;;;;4968897;28;20035;-77
2022/03/14 03:45:54;;;;;;;0.15;0.15;;;5.60;99.90;;;;;;4970620;28;20027;-79
2022/03/14 03:48:20;;;;;;;0.10;0.10;;;5.70;99.90;;;;;;4970219;28;20035;-78
2022/03/14 03:50:46;;;;;;;0.63;0.10;;;5.70;99.90;;;;;;4970781;28;20058;-77
2022/03/14 03:53:12;;;;;;;0.20;0.20;;;5.60;99.90;;;;;;4970684;28;20045;-78
2022/03/14 03:55:38;;;;;;;0.68;0.20;;;5.50;99.90;;;;;;4960371;28;20028;-78
2022/03/14 03:58:05;;;;;;;1.45;0.22;;;5.40;99.90;;;;;;4950736;28;20419;-78
2022/03/14 04:00:30;;;;;;;4.30;0.38;;;5.30;99.90;;;;;;4951114;28;20019;-78
2022/03/14 04:02:56;;;;;;;0.40;0.10;;;5.30;99.90;;;;;;4965930;28;20035;-78
2022/03/14 04:05:25;;;;;;;0.47;0.17;;;5.30;99.90;;;;;;4951399;28;20027;-77
2022/03/14 04:07:52;;;;;;;0.28;0.28;;;5.20;99.90;;;;;;4950842;28;20050;-77
2022/03/14 04:10:18;;;;;;;0.85;0.20;;;5.20;99.90;;;;;;4949611;28;20035;-77
2022/03/14 04:12:44;;;;;;;0.10;0.10;;;5.10;99.90;;;;;;4950563;28;20042;-77
2022/03/14 04:15:11;;;;;;;0.13;0.13;;;5.00;99.90;;;;;;4951099;28;20030;-77
2022/03/14 04:17:42;;;;;;;0.35;0.10;;;5.00;99.90;;;;;;4949517;28;20118;-77
2022/03/14 04:20:13;;;;;;;0.20;0.10;;;4.60;99.90;;;;;;4951345;28;20039;-78
2022/03/14 04:22:39;;;;;;;0.20;0.20;;;4.70;99.90;;;;;;4949263;28;20419;-77
2022/03/14 04:25:07;;;;;;;1.65;0.90;;;4.60;99.90;;;;;;4948376;28;20027;-77
2022/03/14 04:27:33;;;;;;;1.23;0.43;;;4.50;99.90;;;;;;4949227;28;20121;-78
2022/03/14 04:29:59;;;;;;;5.00;0.80;;;4.30;99.90;;;;;;4950740;28;20592;-77
2022/03/14 04:32:25;;;;;;;2.88;1.40;;;5.00;99.90;;;;;;4949615;28;20509;-78
2022/03/14 04:34:51;;;;;;;0.82;0.70;;;4.00;99.90;;;;;;4950673;28;20092;-78
2022/03/14 04:37:17;;;;;;;1.58;0.73;;;4.00;99.90;;;;;;4950618;28;20517;-79
2022/03/14 04:39:43;;;;;;;0.63;0.45;;;3.80;99.90;;;;;;4951108;28;20077;-78
2022/03/14 04:42:09;;;;;;;0.17;0.17;;;3.50;99.90;;;;;;4950761;28;20034;-78
2022/03/14 04:44:39;;;;;;;0.20;0.20;;;3.40;99.90;;;;;;4949901;28;20371;-77
2022/03/14 04:47:05;;;;;;;0.20;0.20;;;3.20;99.90;;;;;;4950262;28;20028;-77
2022/03/14 04:49:31;;;;;;;0.20;0.20;;;3.00;99.90;;;;;;4950210;28;20505;-78
2022/03/14 04:51:57;;;;;;;0.30;0.30;;;2.80;99.90;;;;;;4964854;28;20039;-77
2022/03/14 04:54:23;;;;;;;0.20;0.10;;;2.60;99.90;;;;;;4964692;28;20549;-77
2022/03/14 04:56:49;;;;;;;0.10;0.10;;;2.40;99.90;;;;;;4968144;28;20092;-77
2022/03/14 04:59:15;;;;;;;0.35;0.35;;;2.30;99.90;;;;;;4967171;28;20089;-79
2022/03/14 05:01:41;;;;;;;0.10;0.10;;;2.20;99.90;;;;;;4968293;28;20030;-78
2022/03/14 05:04:07;;;;;;;0.20;0.20;;;2.20;99.90;;;;;;4969261;28;20026;-78
2022/03/14 05:06:33;;;;;;;0.20;0.20;;;2.10;99.90;;;;;;4984091;28;20027;-78
2022/03/14 05:08:59;;;;;;;0.10;0.10;;;1.90;99.90;;;;;;4969545;28;20034;-78
2022/03/14 05:11:25;;;;;;;0.22;0.22;;;1.90;99.90;;;;;;4969093;28;20019;-77
2022/03/14 05:13:51;;;;;;;0.47;0.20;;;1.90;99.90;;;;;;4968729;28;20491;-78
2022/03/14 05:16:17;;;;;;;0.17;0.17;;;1.70;99.90;;;;;;4969103;28;20468;-78
2022/03/14 05:18:43;;;;;;;0.10;0.10;;;1.50;99.90;;;;;;4968972;28;20113;-77
2022/03/14 05:21:09;;;;;;;0.32;0.17;;;1.40;99.90;;;;;;4968589;28;20142;-78
2022/03/14 05:23:35;;;;;;;0.10;0.10;;;1.30;99.90;;;;;;4968841;28;20328;-78
2022/03/14 05:26:00;;;;;;;0.40;0.20;;;1.30;99.90;;;;;;4969182;28;20121;-77
2022/03/14 05:28:26;;;;;;;0.10;0.10;;;1.20;99.90;;;;;;4968983;28;20035;-79
2022/03/14 05:30:53;;;;;;;0.10;0.10;;;1.20;99.90;;;;;;4968722;28;20027;-78
2022/03/14 05:33:18;;;;;;;0.20;0.20;;;1.10;99.90;;;;;;4968827;28;20027;-78
2022/03/14 05:35:44;;;;;;;1.10;0.20;;;1.00;99.90;;;;;;4969002;28;20051;-78
2022/03/14 05:38:10;;;;;;;0.30;0.30;;;0.90;99.90;;;;;;4967653;28;20067;-77
2022/03/14 05:40:36;;;;;;;0.85;0.30;;;1.00;99.90;;;;;;4971120;28;20042;-79
2022/03/14 05:43:09;;;;;;;0.20;0.20;;;1.10;99.90;;;;;;4974244;28;20053;-80
2022/03/14 05:45:36;;;;;;;0.15;0.15;;;1.00;99.90;;;;;;4988456;28;20026;-80
2022/03/14 05:48:02;;;;;;;0.10;0.10;;;-0.40;99.90;;;;;;4992043;28;20023;-79
2022/03/14 05:50:28;;;;;;;0.60;0.30;;;0.80;99.90;;;;;;4990480;28;20054;-80
2022/03/14 05:52:54;;;;;;;0.20;0.20;;;0.70;99.90;;;;;;4971772;28;20483;-79
2022/03/14 05:55:20;;;;;;;0.20;0.20;;;0.60;99.90;;;;;;4991273;28;20027;-79
2022/03/14 05:57:46;;;;;;;8.00;0.65;;;0.60;99.90;;;;;;4974892;28;20026;-78
2022/03/14 06:00:13;;;;;;;0.20;0.20;;;0.60;99.90;;;;;;4969655;28;20101;-80
2022/03/14 06:02:45;;;;;;;0.17;0.17;;;0.50;99.90;;;;;;4974272;28;20054;-78
2022/03/14 06:05:10;;;;;;;0.10;0.10;;;0.50;99.90;;;;;;4968988;28;20471;-77
2022/03/14 06:07:36;;;;;;;0.13;0.13;;;0.50;99.90;;;;;;4962752;28;20038;-77
2022/03/14 06:10:02;;;;;;;0.40;0.30;;;0.70;99.90;;;;;;4948457;29;20038;-77
2022/03/14 06:12:30;;;;;;;0.20;0.20;;;0.70;99.90;;;;;;4962479;28;20031;-77
2022/03/14 06:14:58;;;;;;;0.70;0.22;;;0.70;99.90;;;;;;4948404;29;20221;-77
2022/03/14 06:17:24;;;;;;;0.17;0.15;;;0.90;99.90;;;;;;4948603;29;20110;-77
2022/03/14 06:19:50;;;;;;;1.17;0.10;;;1.20;99.90;;;;;;4947487;28;20111;-77
2022/03/14 06:22:20;;;;;;;0.10;0.10;;;1.30;99.90;;;;;;4948850;29;20037;-77
2022/03/14 06:24:47;;;;;;;0.10;0.10;;;1.30;99.90;;;;;;4954409;29;20126;-77
2022/03/14 06:27:18;;;;;;;0.05;0.05;;;1.40;99.90;;;;;;4960534;29;20043;-77
2022/03/14 06:29:45;;;;;;;0.10;0.10;;;1.40;99.90;;;;;;4958619;29;20034;-76
2022/03/14 06:32:11;;;;;;;0.22;0.13;;;1.40;99.90;;;;;;4972522;28;20247;-78
2022/03/14 06:34:40;;;;;;;0.22;0.20;;;1.50;99.90;;;;;;4952876;29;20047;-77
2022/03/14 06:37:09;;;;;;;0.10;0.10;;;1.60;99.90;;;;;;4954555;28;20462;-77
2022/03/14 06:39:36;;;;;;;0.10;0.10;;;1.70;99.90;;;;;;4964731;28;20066;-77
2022/03/14 06:42:04;;;;;;;0.20;0.20;;;1.80;99.90;;;;;;4965345;28;20030;-77
2022/03/14 06:44:30;;;;;;;1.05;0.17;;;1.50;99.90;;;;;;4969518;28;20022;-77
2022/03/14 06:46:56;;;;;;;0.20;0.20;;;1.80;99.90;;;;;;4966173;28;20211;-77
2022/03/14 06:49:22;;;;;;;0.20;0.20;;;1.90;99.90;;;;;;4964211;28;20027;-78
2022/03/14 06:51:48;;;;;;;0.17;0.15;;;1.90;99.90;;;;;;4964607;28;20069;-77
2022/03/14 06:54:14;;;;;;;0.10;0.10;;;2.00;99.90;;;;;;4965926;28;20015;-77
2022/03/14 06:56:43;;;;;;;1.15;0.30;;;2.10;99.90;;;;;;4966111;28;20019;-77
2022/03/14 06:59:09;;;;;;;0.20;0.20;;;2.30;99.90;;;;;;4966655;28;20380;-77
2022/03/14 07:01:35;;;;;;;0.20;0.20;;;2.50;99.90;;;;;;4970718;28;20043;-77
2022/03/14 07:04:02;;;;;;;0.52;0.30;;;2.60;99.90;;;;;;4967187;28;20410;-78
2022/03/14 07:06:28;;;;;;;0.38;0.38;;;2.80;99.90;;;;;;4967385;28;20031;-76
2022/03/14 07:08:54;;;;;;;0.40;0.40;;;2.90;99.90;;;;;;4966299;28;20031;-77
2022/03/14 07:11:20;;;;;;;0.30;0.30;;;3.10;99.90;;;;;;4966815;28;20034;-78
2022/03/14 07:13:45;;;;;;;1.05;0.95;;;3.20;99.90;;;;;;4969490;28;20065;-77
2022/03/14 07:16:11;;;;;;;0.35;0.28;;;3.40;99.90;;;;;;4967892;28;20227;-77
2022/03/14 07:18:37;;;;;;;0.75;0.30;;;3.50;99.90;;;;;;4969733;28;20046;-79
2022/03/14 07:21:03;;;;;;;0.20;0.20;;;3.70;99.90;;;;;;4971746;28;20035;-82
2022/03/14 07:23:32;;;;;;;0.40;0.40;;;3.90;99.90;;;;;;4980148;28;20041;-80
2022/03/14 07:25:57;;;;;;;0.40;0.30;;;4.10;99.90;;;;;;4982787;28;20017;-82
2022/03/14 07:28:23;;;;;;;0.50;0.50;;;4.40;99.90;;;;;;4981421;28;20427;-81
2022/03/14 07:30:49;;;;;;;0.40;0.40;;;4.70;99.90;;;;;;4985145;28;20114;-80
2022/03/14 07:33:15;;;;;;;1.00;0.80;;;5.20;99.90;;;;;;4981962;28;20042;-82
2022/03/14 07:35:41;;;;;;;1.58;1.20;;;5.80;99.90;;;;;;4973329;28;20488;-78
2022/03/14 07:38:10;;;;;;;1.25;0.80;;;6.10;99.90;;;;;;4967918;28;20047;-79
2022/03/14 07:40:36;;;;;;;3.13;0.43;;;6.30;99.90;;;;;;4978495;28;20023;-78
2022/03/14 07:43:02;;;;;;;2.78;0.80;;;6.30;99.90;;;;;;4973748;28;20446;-78
2022/03/14 07:45:28;;;;;;;0.70;0.70;;;6.30;99.90;;;;;;4969487;28;20034;-81
2022/03/14 07:47:56;;;;;;;0.98;0.60;;;6.30;99.90;;;;;;4968727;28;20028;-79
2022/03/14 07:50:22;;;;;;;0.50;0.50;;;6.50;99.90;;;;;;4978598;28;20055;-80
2022/03/14 07:52:48;;;;;;;0.75;0.75;;;6.60;99.90;;;;;;4982624;28;20034;-81
2022/03/14 07:55:20;;;;;;;1.65;0.57;;;6.70;99.90;;;;;;4969835;28;20024;-80
2022/03/14 07:57:46;;;;;;;1.80;0.93;;;6.80;99.90;;;;;;4955001;29;20031;-82
2022/03/14 08:00:15;;;;;;;2.67;0.80;;;6.90;99.90;;;;;;4965683;28;20374;-82
2022/03/14 08:02:44;;;;;;;1.05;0.95;;;7.00;99.90;;;;;;4969960;29;20004;-83
2022/03/14 08:05:14;;;;;;;3.77;2.57;;;7.10;99.90;;;;;;4962697;28;20297;-81
2022/03/14 08:07:42;;;;;;;1.38;0.98;;;7.20;99.90;;;;;;4959404;29;20042;-80
2022/03/14 08:10:09;;;;;;;2.88;1.30;;;7.30;99.90;;;;;;4956303;29;20413;-81
2022/03/14 08:12:46;;;;;;;1.08;0.93;;;7.40;99.90;;;;;;4968389;28;20027;-81
2022/03/14 08:15:22;;;;;;;0.50;0.50;;;7.60;99.90;;;;;;4965425;29;20023;-80
2022/03/14 08:17:50;;;;;;;0.80;0.80;;;7.70;99.90;;;;;;4973450;29;20034;-83
2022/03/14 08:20:16;;;;;;;2.33;0.80;;;7.90;99.90;;;;;;4968803;29;20060;-83
2022/03/14 08:22:42;;;;;;;3.33;0.70;;;8.00;99.90;;;;;;4970109;29;20042;-79
2022/03/14 08:25:08;;;;;;;0.60;0.60;;;8.10;99.90;;;;;;4950565;29;20062;-79
2022/03/14 08:27:34;;;;;;;1.00;0.88;;;8.10;99.90;;;;;;4966916;29;20015;-79
2022/03/14 08:30:04;;;;;;;1.60;0.80;;;8.10;99.90;;;;;;4968552;29;20027;-83
2022/03/14 08:32:32;;;;;;;1.50;0.90;;;8.20;99.90;;;;;;4969302;29;20035;-79
2022/03/14 08:34:58;;;;;;;0.98;0.60;;;8.20;99.90;;;;;;4967079;29;20510;-82
2022/03/14 08:37:24;;;;;;;1.15;0.50;;;8.20;99.90;;;;;;4952181;29;20045;-80
2022/03/14 08:39:49;;;;;;;1.48;0.55;;;8.50;99.90;;;;;;4949370;29;20571;-80
2022/03/14 08:42:15;;;;;;;2.08;0.70;;;8.60;99.90;;;;;;4950582;29;20073;-79
2022/03/14 08:44:41;;;;;;;0.55;0.55;;;8.60;99.90;;;;;;4950552;29;20065;-80
2022/03/14 08:47:07;;;;;;;2.67;1.27;;;9.00;99.90;;;;;;4949489;29;20450;-78
2022/03/14 08:49:34;;;;;;;5.78;0.68;;;9.10;99.90;;;;;;4956021;28;20374;-78
2022/03/14 08:52:01;;;;;;;4.38;0.80;;;9.20;99.90;;;;;;4965572;28;20410;-80
2022/03/14 08:54:26;;;;;;;3.03;0.75;;;9.20;99.90;;;;;;4950154;29;20031;-79
2022/03/14 08:56:52;;;;;;;0.60;0.60;;;9.30;99.90;;;;;;4982498;28;20424;-79
2022/03/14 08:59:18;;;;;;;1.52;1.33;;;9.00;99.90;;;;;;4969163;28;20035;-79
2022/03/14 09:01:44;;;;;;;0.90;0.70;;;8.90;99.90;;;;;;4968347;28;20541;-79
2022/03/14 09:04:09;;;;;;;0.55;0.55;;;8.90;99.90;;;;;;4969762;28;20066;-79
2022/03/14 09:06:36;;;;;;;3.30;0.40;;;8.80;99.90;;;;;;4969410;28;20089;-78
2022/03/14 09:09:03;;;;;;;0.98;0.80;;;8.80;99.90;;;;;;4967715;28;20041;-78
2022/03/14 09:11:29;;;;;;;1.05;0.30;;;8.70;99.90;;;;;;4969197;28;20072;-79
2022/03/14 09:13:55;;;;;;;1.38;0.70;;;8.80;99.90;;;;;;4969308;28;20019;-79
2022/03/14 09:16:21;;;;;;;3.15;0.90;;;8.80;99.90;;;;;;4967786;28;20031;-78
2022/03/14 09:18:47;;;;;;;1.98;0.63;;;8.80;99.90;;;;;;4968907;28;20044;-79
2022/03/14 09:21:14;;;;;;;3.03;0.80;;;8.80;99.90;;;;;;4969044;28;20030;-79
2022/03/14 09:23:42;;;;;;;9.05;1.38;;;8.90;99.90;;;;;;4969050;28;20039;-79
2022/03/14 09:26:08;;;;;;;2.08;0.90;;;9.00;99.90;;;;;;4969497;28;20479;-79
2022/03/14 09:28:34;;;;;;;2.88;0.40;;;9.20;99.90;;;;;;4967598;28;20089;-78
2022/03/14 09:31:00;;;;;;;4.90;0.75;;;9.30;99.90;;;;;;4969027;28;20034;-79
2022/03/14 09:33:25;;;;;;;3.67;0.50;;;9.20;99.90;;;;;;4967412;28;20037;-79
2022/03/14 09:35:51;;;;;;;0.85;0.60;;;9.40;99.90;;;;;;4967602;28;20039;-79
2022/03/14 09:38:17;;;;;;;1.63;0.30;;;9.50;99.90;;;;;;4969504;28;20047;-78
2022/03/14 09:40:45;;;;;;;4.20;0.50;;;9.50;99.90;;;;;;4968232;28;20043;-79
2022/03/14 09:43:15;;;;;;;4.20;0.52;;;9.40;99.90;;;;;;4967982;28;20015;-78
2022/03/14 09:45:49;;;;;;;2.80;0.63;;;9.50;99.90;;;;;;4967153;28;20598;-78
2022/03/14 09:48:15;;;;;;;1.35;0.40;;;9.60;99.90;;;;;;4968646;28;20022;-79
2022/03/14 09:50:44;;;;;;;1.50;0.60;;;9.70;99.90;;;;;;4968353;28;20343;-78
2022/03/14 09:53:13;;;;;;;3.65;0.65;;;9.70;99.90;;;;;;4966519;28;20029;-79
2022/03/14 09:55:45;;;;;;;1.75;0.43;;;9.70;98.80;;;;;;4963920;28;20439;-78
2022/03/14 09:58:12;;;;;;;1.20;0.47;;;8.20;99.00;;;;;;4963638;28;20430;-79
2022/03/14 10:00:39;;;;;;;2.17;0.77;;;9.80;98.10;;;;;;4951266;28;20030;-79
2022/03/14 10:03:05;;;;;;;0.47;0.40;;;9.80;97.90;;;;;;4966155;28;20030;-79
2022/03/14 10:05:31;;;;;;;3.72;0.40;;;9.60;97.90;;;;;;4985390;28;20022;-78
2022/03/14 10:07:57;;;;;;;1.40;0.47;;;9.70;97.50;;;;;;4968224;28;20118;-78
2022/03/14 10:10:22;;;;;;;4.15;0.70;;;9.60;97.60;;;;;;4970303;28;20102;-79
2022/03/14 10:12:57;;;;;;;1.75;0.63;;;9.70;98.50;;;;;;4982306;28;20117;-78
2022/03/14 10:15:25;;;;;;;6.25;0.60;;;9.80;97.60;;;;;;4982269;28;20034;-78
2022/03/14 10:17:52;;;;;;;4.55;0.57;;;9.80;98.30;;;;;;4981784;28;20443;-78
2022/03/14 10:20:18;;;;;;;1.60;1.30;;;9.80;97.90;;;;;;4966167;28;20082;-79
2022/03/14 10:22:44;;;;;;;1.48;0.45;;;10.00;97.00;;;;;;4965143;28;20027;-78
2022/03/14 10:25:18;;;;;;;2.65;0.47;;;10.10;96.10;;;;;;4966149;28;20031;-79
2022/03/14 10:27:57;;;;;;;0.73;0.73;;;10.10;95.50;;;;;;4965770;28;20015;-78
2022/03/14 10:30:32;;;;;;;1.67;0.57;;;10.20;95.90;;;;;;4981113;28;20035;-78
2022/03/14 10:33:07;;;;;;;5.45;0.73;;;10.20;95.70;;;;;;4966208;28;20034;-78
2022/03/14 10:35:35;;;;;;;0.50;0.38;;;10.10;95.20;;;;;;4966110;28;20050;-79
2022/03/14 10:38:04;;;;;;;6.35;0.60;;;10.30;95.20;;;;;;4966824;28;20388;-78
2022/03/14 10:40:42;;;;;;;5.03;0.60;;;10.60;94.70;;;;;;4967865;28;20389;-79
2022/03/14 10:43:20;;;;;;;3.38;1.08;;;10.60;93.70;;;;;;4982180;28;20266;-78
2022/03/14 10:45:46;;;;;;;2.13;0.75;;;10.70;93.40;;;;;;4967360;28;20483;-79
2022/03/14 10:48:12;;;;;;;1.65;0.55;;;10.80;93.20;;;;;;4966692;28;20073;-79
2022/03/14 10:50:40;;;;;;;1.80;0.47;;;9.40;92.50;;;;;;4982150;28;20054;-78
2022/03/14 10:53:11;;;;;;;3.00;0.65;;;10.70;93.00;;;;;;4967310;28;20018;-78
2022/03/14 10:55:42;;;;;;;3.05;0.63;;;10.80;93.00;;;;;;4967248;28;20055;-79
2022/03/14 10:58:13;;;;;;;3.30;0.52;;;11.00;91.20;;;;;;4981511;28;20412;-79
2022/03/14 11:00:54;;;;;;;0.50;0.40;;;10.80;91.50;;;;;;4968674;28;20415;-78
2022/03/14 11:03:27;;;;;;;1.35;0.40;;;11.00;91.20;;;;;;4968041;28;20187;-78
2022/03/14 11:05:58;;;;;;;1.02;0.30;;;11.10;91.70;;;;;;4966016;28;20030;-79
2022/03/14 11:08:35;;;;;;;0.32;0.30;;;11.20;91.30;;;;;;4967520;28;20038;-79
2022/03/14 11:11:15;;;;;;;2.58;0.50;;;11.30;90.10;;;;;;4965969;28;20130;-78
2022/03/14 11:13:42;;;;;;;;;;;11.40;90.10;;;;;;4968602;28;20026;-79
2022/03/14 11:16:34;;;;;;;1.02;0.60;;;11.40;89.60;;;;;;4967048;28;20378;-79
2022/03/14 11:19:01;;;;;;;0.75;0.40;;;11.50;90.40;;;;;;4958688;28;20051;-79
2022/03/14 11:21:27;;;;;;;0.60;0.30;;;11.60;86.50;;;;;;4946740;28;20030;-79
2022/03/14 11:23:55;;;;;;;1.33;0.63;;;11.70;86.70;;;;;;4947794;29;20076;-79
2022/03/14 11:26:23;;;;;;;0.40;0.40;;;11.80;85.50;;;;;;4962594;28;20028;-79
2022/03/14 11:28:50;;;;;;;3.35;0.77;;;11.90;85.10;;;;;;4948046;29;20051;-79
2022/03/14 11:31:21;;;;;;;0.68;0.52;;;11.90;84.10;;;;;;4948057;29;20027;-79
2022/03/14 11:33:48;;;;;;;4.57;0.60;;;11.80;82.50;;;;;;4948238;28;20044;-79
2022/03/14 11:36:18;;;;;;;1.40;0.60;;;11.70;84.00;;;;;;4950202;28;20054;-79
2022/03/14 11:38:44;;;;;;;2.22;0.73;;;11.70;83.30;;;;;;4950754;28;20448;-79
2022/03/14 11:41:10;;;;;;;0.75;0.43;;;11.90;85.00;;;;;;4950308;28;20033;-79
2022/03/14 11:43:39;;;;;;;2.80;0.60;;;10.60;83.00;;;;;;4949781;28;20407;-79
2022/03/14 11:46:05;;;;;;;1.03;0.40;;;12.00;82.50;;;;;;4951514;29;20024;-80
2022/03/14 11:48:33;;;;;;;3.05;0.50;;;12.00;81.00;;;;;;4952407;29;20539;-79
2022/03/14 11:51:06;;;;;;;0.95;0.40;;;12.00;81.20;;;;;;4951226;29;20634;-79
2022/03/14 11:53:34;;;;;;;0.70;0.43;;;12.00;81.50;;;;;;4949799;28;20138;-79
2022/03/14 11:56:05;;;;;;;1.83;0.50;;;12.10;80.30;;;;;;4965810;28;20352;-79
2022/03/14 11:58:38;;;;;;;2.72;0.65;;;12.20;81.50;;;;;;4978752;28;20030;-79
2022/03/14 12:01:27;;;;;;;0.50;0.43;;;12.40;80.60;;;;;;4971019;28;20126;-79
2022/03/14 12:03:55;;;;;;;0.55;0.40;;;12.30;80.60;;;;;;4981108;28;20199;-79
2022/03/14 12:06:45;;;;;;;0.73;0.50;;;12.30;81.10;;;;;;4981509;28;20037;-80
2022/03/14 12:09:34;;;;;;;1.05;0.57;;;12.40;80.00;;;;;;4974452;28;20043;-79
2022/03/14 12:12:12;;;;;;;2.03;0.50;;;12.40;81.40;;;;;;4961268;28;20039;-79
2022/03/14 12:14:46;;;;;;;2.28;0.47;;;12.50;80.70;;;;;;4967007;28;20027;-78
2022/03/14 12:17:15;;;;;;;5.60;1.40;;;12.80;79.10;;;;;;4967881;28;20077;-79
2022/03/14 12:19:48;;;;;;;1.42;0.60;;;13.00;78.10;;;;;;4969102;28;20043;-79
2022/03/14 12:22:35;;;;;;;0.75;0.73;;;13.70;76.70;;;;;;4968250;28;20054;-79
2022/03/14 12:25:03;;;;;;;0.30;0.30;;;14.60;73.80;;;;;;4966984;28;20030;-79
2022/03/14 12:27:35;;;;;;;2.70;0.80;;;14.80;69.80;;;;;;4968224;28;20031;-80
2022/03/14 12:30:25;;;;;;;2.72;0.55;;;15.40;68.70;;;;;;4968331;28;20026;-80
2022/03/14 12:32:57;;;;;;;2.10;0.80;;;15.80;68.00;;;;;;4968184;28;20023;-80
2022/03/14 12:35:24;;;;;;;2.72;0.52;;;15.70;67.50;;;;;;4968818;28;20059;-80
2022/03/14 12:37:54;;;;;;;0.98;0.60;;;15.50;66.10;;;;;;4968803;28;20037;-79
2022/03/14 12:40:20;;;;;;;0.77;0.50;;;15.60;65.70;;;;;;4969761;28;20487;-79
2022/03/14 12:42:55;;;;;;;0.55;0.55;;;15.50;65.40;;;;;;4963728;28;20500;-79
2022/03/14 12:45:35;;;;;;;0.90;0.55;;;15.30;65.40;;;;;;4960848;28;20023;-80
2022/03/14 12:48:12;;;;;;;2.83;0.52;;;15.50;64.90;;;;;;4964064;29;20035;-80
2022/03/14 12:50:50;;;;;;;1.48;0.70;;;15.90;64.70;;;;;;4969807;28;20391;-82
2022/03/14 12:53:29;;;;;;;1.35;0.50;;;17.10;62.40;;;;;;4970660;28;20037;-87
2022/03/14 12:56:16;;;;;;;1.90;0.63;;;17.20;61.60;;;;;;4973261;28;20026;-86
2022/03/14 12:58:54;;;;;;;3.80;0.90;;;16.20;61.90;;;;;;4997487;28;20065;-79